Meath Environmental Platform

Observations for Trim Patrick St

Time AQI Temp °C Hum % Pres Pa CO μg/m³ H₂S μg/m³ NO μg/m³ NO₂ μg/m³ O₃ μg/m³ SO₂ μg/m³ PM1 μg/m³ PM2.5 μg/m³ PM10 μg/m³
Wednesday 26 August 2026
18:48 2 29.5 43 69,169 0 9.45 1.39 23.13 135.64 13.43 4.57 10.77 11.84
18:47 2 29.8 43 69,169 0 13.4 1.44 19.84 141.83 15.33 6.29 12.31 13.54
18:46 2 30 42 69,163 0 17.91 1.44 27.97 176.81 14.99 5.43 10.82 11.9
18:45 2 30.2 41 69,185 0 6.66 1.54 29.4 149.39 13.28 4.57 10.89 11.97
18:44 2 30.5 42 69,185 0 0 1.73 18.33 88.63 14.14 5.43 11.63 12.79
18:43 2 30.6 43 69,183 0 4.75 1.83 22.94 106.97 14.37 7.14 13.87 15.25
18:42 2 30.8 41 69,177 0 7.79 1.78 17.33 153.16 16.47 6.29 12.45 13.69
18:41 2 31 40 69,202 0 8.66 1.77 33.34 126.19 14.08 5.43 11.71 12.88
18:40 2 31.2 41 69,202 0 0.67 1.82 23.42 112.49 14.29 6.29 11.67 12.83
18:39 2 31.3 40 69,228 0 3.07 1.73 26.58 135.58 14.98 5.43 10.94 12.04
18:37 2 31.5 40 69,236 0 0 1.61 25.84 150.73 14.39 5.43 12.54 13.79
18:36 2 31.6 40 69,242 0 3.53 1.57 24.22 102.5 14.92 5.43 13.34 14.67
18:35 2 31.7 42 69,248 0 9.91 1.75 32.97 115.43 15.34 7.14 13.17 14.48
18:34 2 31.7 40 69,254 0 8.57 1.64 28.36 120.78 15.23 6.29 13.32 14.65
18:33 2 31.8 40 69,232 0 5.44 1.74 26.85 157.16 15.47 7.14 13.28 14.61
18:32 2 31.8 41 69,206 0 1.6 1.75 24.83 121.41 14.95 6.29 14.05 15.45
18:31 2 31.8 39 69,234 0 1.95 1.59 26.69 115.21 14.87 7.14 14.95 16.44
18:30 2 31.9 41 69,242 0 0 1.79 25.85 102.91 13.96 5.43 12.44 13.69
18:29 2 31.9 41 69,246 0 5.25 1.8 22.08 93.24 16.62 7.14 13.27 14.6
18:28 2 32 40 69,256 0 8.27 1.64 29.98 178.99 15.82 5.43 11.77 12.94